Wishon, California
Current Conditions -  °F | °C
As of 2:53 PM on Thursday 27 Nov 2014 (Local Time) from KFAT Reporting Station
Haze Haze  
Wind Chill: 22°   Ceiling: Unl
Heat Index: 22°   Visibility: 6mi
Dew Point:   Wind: 0mph
Humidity: 38%   Direction: NA
Pressure: 30.08"   Gusts: NA
Location:  37.27°N, 119.54°W
Report Text: KFAT 272253Z 00000KT 6SM HZ FEW150 SCT200 22/07 A3008 RMK AO2 SLP185 T02170067
Loading
Personal Weather Stations






























Interactive Weather Map New forecast layout! Learn more

10-Day Weather Forecast

Advertisements
Track Severe Weather on mobile